createdAt,value
2019-02-16T00:00:34.424Z,24.17
2019-02-16T00:03:03.409Z,22.23
2019-02-16T00:05:32.137Z,26.03
2019-02-16T00:08:00.866Z,26.33
2019-02-16T00:10:29.647Z,24.43
2019-02-16T00:13:04.377Z,24.27
2019-02-16T00:15:33.096Z,24.50
2019-02-16T00:18:01.973Z,26.53
2019-02-16T00:20:30.698Z,26.37
2019-02-16T00:22:59.425Z,30.20
2019-02-16T00:25:28.321Z,23.40
2019-02-16T00:27:57.042Z,22.47
2019-02-16T00:30:25.777Z,22.23
2019-02-16T00:32:55.822Z,18.73
2019-02-16T00:35:24.685Z,20.63
2019-02-16T00:37:53.417Z,20.20
2019-02-16T00:40:22.271Z,18.60
2019-02-16T00:42:50.992Z,21.20
2019-02-16T00:45:19.732Z,21.47
2019-02-16T00:47:48.593Z,16.67
2019-02-16T00:50:17.317Z,16.07
2019-02-16T00:52:46.060Z,17.83
2019-02-16T00:55:14.851Z,17.40
2019-02-16T00:57:43.578Z,14.20
2019-02-16T01:00:13.022Z,15.13
2019-02-16T01:02:45.243Z,17.07
2019-02-16T01:05:13.963Z,14.80
2019-02-16T01:07:42.688Z,18.00
2019-02-16T01:10:11.490Z,15.13
2019-02-16T01:12:40.218Z,17.00
2019-02-16T01:15:09.615Z,16.43
2019-02-16T01:17:38.381Z,17.00
2019-02-16T01:20:09.304Z,23.63
2019-02-16T01:22:38.026Z,24.63
2019-02-16T01:25:07.295Z,24.10
2019-02-16T01:27:36.027Z,18.67
2019-02-16T01:30:07.363Z,17.83
2019-02-16T01:32:36.229Z,17.90
2019-02-16T01:35:06.460Z,15.80
2019-02-16T01:37:35.182Z,23.33
2019-02-16T01:40:04.658Z,24.50
2019-02-16T01:42:33.386Z,32.23
2019-02-16T01:45:02.134Z,27.67
2019-02-16T01:47:30.995Z,31.47
2019-02-16T01:49:59.724Z,29.93
2019-02-16T01:52:28.449Z,27.43
2019-02-16T01:54:57.223Z,27.20
2019-02-16T01:57:25.948Z,35.50
2019-02-16T01:59:54.677Z,33.40
2019-02-16T02:02:23.605Z,28.60
2019-02-16T02:04:52.329Z,26.67
2019-02-16T02:07:21.057Z,32.77
2019-02-16T02:09:49.911Z,37.73
2019-02-16T02:12:18.632Z,39.43
2019-02-16T02:14:47.358Z,50.80
2019-02-16T02:17:16.151Z,57.13
2019-02-16T02:19:44.871Z,37.63
2019-02-16T02:22:13.593Z,36.83
2019-02-16T02:24:42.478Z,34.73
2019-02-16T02:27:11.202Z,35.37
2019-02-16T02:29:39.931Z,27.17
2019-02-16T02:32:08.805Z,28.10
2019-02-16T02:34:37.533Z,22.23
2019-02-16T02:37:06.260Z,20.80
2019-02-16T02:39:35.054Z,23.70
2019-02-16T02:42:03.785Z,22.37
2019-02-16T02:44:32.512Z,21.93
2019-02-16T02:47:01.387Z,21.70
2019-02-16T02:49:30.120Z,25.90
2019-02-16T02:51:58.857Z,22.40
2019-02-16T02:54:27.650Z,21.53
2019-02-16T02:56:56.400Z,20.13
2019-02-16T02:59:25.132Z,23.47
2019-02-16T03:01:54.027Z,26.43
2019-02-16T03:04:22.757Z,22.90
2019-02-16T03:06:51.479Z,24.07
2019-02-16T03:09:20.388Z,19.97
2019-02-16T03:11:49.109Z,20.43
2019-02-16T03:14:17.840Z,28.77
2019-02-16T03:16:46.636Z,19.10
2019-02-16T03:19:15.364Z,20.57
2019-02-16T03:21:44.096Z,40.37
2019-02-16T03:24:12.977Z,22.83
2019-02-16T03:26:47.734Z,26.63
2019-02-16T03:29:27.931Z,19.83
2019-02-16T03:32:23.534Z,20.77
2019-02-16T03:34:58.212Z,24.63
2019-02-16T03:37:46.536Z,21.13
2019-02-16T03:40:15.300Z,30.43
2019-02-16T03:42:44.027Z,19.17
2019-02-16T03:45:12.843Z,27.77
2019-02-16T03:47:41.645Z,28.03
2019-02-16T03:50:10.462Z,19.03
2019-02-16T03:52:39.193Z,28.53
2019-02-16T03:55:08.075Z,26.50
2019-02-16T03:57:36.798Z,25.67
2019-02-16T04:00:08.530Z,27.73
2019-02-16T04:02:37.387Z,25.77
2019-02-16T04:05:07.216Z,28.37
2019-02-16T04:07:35.941Z,25.23
2019-02-16T04:10:06.234Z,23.07
2019-02-16T04:12:34.962Z,29.77
2019-02-16T04:15:03.697Z,23.00
2019-02-16T04:17:32.598Z,21.63
2019-02-16T04:20:01.353Z,22.97
2019-02-16T04:22:30.047Z,24.00
2019-02-16T04:24:58.827Z,19.20
2019-02-16T04:27:27.554Z,17.80
2019-02-16T04:29:56.282Z,25.13
2019-02-16T04:32:25.089Z,24.53
2019-02-16T04:34:53.807Z,26.17
2019-02-16T04:37:24.101Z,26.33
2019-02-16T04:39:53.014Z,39.43
2019-02-16T04:42:21.738Z,30.13
2019-02-16T04:44:50.458Z,27.30
2019-02-16T04:47:19.350Z,53.20
2019-02-16T04:49:48.078Z,33.00
2019-02-16T04:52:16.810Z,37.63
2019-02-16T04:54:45.611Z,33.63
2019-02-16T04:57:14.335Z,32.77
2019-02-16T04:59:43.059Z,30.67
2019-02-16T05:02:11.954Z,30.53
2019-02-16T05:04:40.685Z,33.00
2019-02-16T05:07:09.496Z,34.77
2019-02-16T05:09:38.305Z,39.77
2019-02-16T05:12:07.035Z,57.30
2019-02-16T05:14:35.765Z,49.73
2019-02-16T05:17:04.975Z,80.60
2019-02-16T05:19:33.703Z,87.27
2019-02-16T05:22:02.434Z,91.50
2019-02-16T05:24:31.334Z,106.53
2019-02-16T05:27:00.073Z,94.77
2019-02-16T05:29:28.800Z,98.33
2019-02-16T05:31:57.642Z,82.93
2019-02-16T05:34:26.353Z,73.23
2019-02-16T05:36:55.091Z,67.00
2019-02-16T05:39:23.973Z,100.47
2019-02-16T05:41:52.711Z,115.27
2019-02-16T05:44:21.448Z,114.57
2019-02-16T05:46:50.332Z,114.83
2019-02-16T05:49:19.065Z,102.47
2019-02-16T05:51:48.161Z,115.07
2019-02-16T05:54:17.183Z,70.67
2019-02-16T05:56:45.906Z,78.10
2019-02-16T05:59:14.637Z,101.70
2019-02-16T06:01:53.219Z,65.90
2019-02-16T06:04:13.966Z,82.00
2019-02-16T06:06:42.694Z,91.10
2019-02-16T06:09:11.517Z,70.17
2019-02-16T06:11:40.242Z,103.93
2019-02-16T06:14:08.974Z,88.30
2019-02-16T06:16:37.777Z,132.50
2019-02-16T06:19:06.507Z,135.77
2019-02-16T06:21:35.246Z,75.70
2019-02-16T06:24:04.144Z,51.37
2019-02-16T06:26:32.866Z,53.07
2019-02-16T06:29:01.593Z,63.73
2019-02-16T06:31:30.467Z,88.40
2019-02-16T06:33:59.195Z,61.50
2019-02-16T06:36:29.484Z,89.10
2019-02-16T06:38:58.310Z,48.17
2019-02-16T06:41:27.044Z,45.17
2019-02-16T06:43:55.770Z,39.87
2019-02-16T06:46:24.660Z,33.47
2019-02-16T06:48:53.390Z,30.97
2019-02-16T06:51:22.118Z,32.43
2019-02-16T06:53:50.990Z,32.60
2019-02-16T06:56:21.281Z,33.40
2019-02-16T06:58:50.007Z,44.87
2019-02-16T07:01:19.309Z,47.30
2019-02-16T07:03:48.031Z,38.93
2019-02-16T07:06:16.770Z,29.53
2019-02-16T07:08:45.540Z,34.90
2019-02-16T07:11:14.358Z,25.73
2019-02-16T07:13:43.089Z,33.30
2019-02-16T07:16:13.463Z,26.00
2019-02-16T07:18:49.735Z,32.87
2019-02-16T07:21:18.468Z,32.10
2019-02-16T07:23:47.281Z,33.00
2019-02-16T07:26:16.007Z,32.73
2019-02-16T07:28:44.728Z,32.67
2019-02-16T07:31:15.728Z,37.67
2019-02-16T07:33:43.960Z,29.53
2019-02-16T07:36:14.204Z,181.80
2019-02-16T07:38:42.949Z,56.30
2019-02-16T07:41:11.677Z,31.73
2019-02-16T07:43:51.091Z,32.90
2019-02-16T07:46:36.294Z,34.30
2019-02-16T07:49:18.888Z,27.83
2019-02-16T07:52:04.424Z,107.77
2019-02-16T07:54:47.320Z,26.57
2019-02-16T07:57:20.762Z,24.73
2019-02-16T07:59:51.339Z,34.03
2019-02-16T08:02:21.643Z,83.70
2019-02-16T08:04:51.950Z,124.83
2019-02-16T08:07:28.183Z,21.13
2019-02-16T08:09:58.480Z,35.23
2019-02-16T08:12:44.247Z,161.27
2019-02-16T08:15:31.188Z,20.60
2019-02-16T08:18:10.867Z,16.97
2019-02-16T08:20:41.170Z,138.37
2019-02-16T08:23:11.490Z,88.57
2019-02-16T08:25:53.954Z,20.80
2019-02-16T08:28:27.211Z,157.87
2019-02-16T08:31:00.236Z,25.33
2019-02-16T08:33:30.539Z,220.13
2019-02-16T08:36:00.836Z,51.77
2019-02-16T08:38:34.260Z,25.83
2019-02-16T08:41:07.380Z,27.23
2019-02-16T08:43:40.743Z,52.47
2019-02-16T08:46:20.253Z,68.10
2019-02-16T08:48:53.738Z,17.13
2019-02-16T08:51:36.096Z,19.27
2019-02-16T08:54:22.944Z,52.23
2019-02-16T08:56:53.242Z,22.63
2019-02-16T08:59:23.545Z,19.07
2019-02-16T09:02:02.774Z,21.33
2019-02-16T09:04:48.118Z,85.60
2019-02-16T09:07:21.463Z,94.37
2019-02-16T09:09:54.494Z,29.33
2019-02-16T09:12:24.800Z,54.17
2019-02-16T09:15:04.105Z,16.10
2019-02-16T09:17:34.401Z,29.80
2019-02-16T09:20:21.690Z,15.13
2019-02-16T09:22:58.034Z,14.43
2019-02-16T09:25:37.649Z,12.67
2019-02-16T09:28:10.846Z,14.43
2019-02-16T09:30:41.265Z,15.43
2019-02-16T09:33:17.436Z,10.40
2019-02-16T09:35:56.566Z,9.60
2019-02-16T09:38:42.095Z,12.77
2019-02-16T09:41:21.662Z,7.13
2019-02-16T09:44:03.909Z,9.07
2019-02-16T09:46:40.594Z,7.37
2019-02-16T09:49:10.894Z,7.70
2019-02-16T09:51:44.145Z,8.00
2019-02-16T09:54:20.616Z,7.37
2019-02-16T09:57:07.084Z,9.57
2019-02-16T09:59:37.418Z,8.97
2019-02-16T10:02:10.435Z,7.57
2019-02-16T10:04:44.648Z,5.03
2019-02-16T10:07:30.568Z,6.13
2019-02-16T10:10:07.317Z,6.63
2019-02-16T10:12:37.621Z,8.17
2019-02-16T10:15:19.339Z,5.73
2019-02-16T10:17:52.647Z,7.33
2019-02-16T10:20:28.989Z,8.93
2019-02-16T10:23:01.991Z,10.27
2019-02-16T10:25:32.294Z,9.83
2019-02-16T10:28:05.617Z,8.60
2019-02-16T10:30:44.927Z,6.70
2019-02-16T10:33:18.636Z,5.23
2019-02-16T10:35:51.685Z,12.27
2019-02-16T10:38:31.259Z,5.27
2019-02-16T10:41:01.678Z,5.47
2019-02-16T10:43:44.188Z,6.00
2019-02-16T10:46:23.454Z,5.07
2019-02-16T10:48:53.825Z,13.77
2019-02-16T10:51:40.426Z,7.63
2019-02-16T10:54:10.896Z,6.50
2019-02-16T10:56:44.122Z,5.07
2019-02-16T10:59:14.418Z,6.23
2019-02-16T11:01:44.873Z,6.10
2019-02-16T11:04:15.205Z,9.47
2019-02-16T11:06:48.470Z,5.37
2019-02-16T11:09:19.253Z,7.00
2019-02-16T11:11:54.994Z,9.50
2019-02-16T11:14:24.973Z,9.13
2019-02-16T11:16:55.258Z,13.10
2019-02-16T11:19:41.992Z,6.70
2019-02-16T11:22:21.476Z,11.00
2019-02-16T11:24:51.948Z,8.07
2019-02-16T11:27:25.216Z,6.30
2019-02-16T11:29:55.524Z,6.10
2019-02-16T11:32:31.714Z,6.17
2019-02-16T11:35:05.035Z,6.27
2019-02-16T11:37:35.324Z,5.90
2019-02-16T11:40:06.470Z,8.00
2019-02-16T11:42:36.799Z,5.60
2019-02-16T11:45:09.401Z,8.33
2019-02-16T11:47:45.928Z,6.53
2019-02-16T11:50:16.220Z,5.90
2019-02-16T11:52:49.289Z,6.33
2019-02-16T11:55:36.182Z,4.80
2019-02-16T11:58:09.554Z,6.27
2019-02-16T12:00:55.003Z,7.30
2019-02-16T12:03:25.297Z,5.27
2019-02-16T12:06:01.936Z,6.53
2019-02-16T12:08:35.226Z,5.57
2019-02-16T12:11:11.766Z,5.17
2019-02-16T12:13:42.055Z,6.63
2019-02-16T12:16:15.313Z,5.17
2019-02-16T12:18:49.925Z,8.00
2019-02-16T12:21:36.792Z,7.63
2019-02-16T12:24:16.153Z,8.40
2019-02-16T12:26:46.458Z,7.53
2019-02-16T12:29:16.751Z,11.10
2019-02-16T12:32:04.070Z,7.37
2019-02-16T12:34:34.352Z,8.30
2019-02-16T12:37:13.914Z,9.40
2019-02-16T12:39:44.221Z,15.97
2019-02-16T12:42:30.511Z,8.77
2019-02-16T12:45:03.755Z,4.80
2019-02-16T12:47:36.963Z,7.63
2019-02-16T12:50:08.075Z,6.63
2019-02-16T12:52:38.371Z,7.07
2019-02-16T12:55:14.610Z,6.43
2019-02-16T12:57:47.595Z,10.70
2019-02-16T13:00:17.933Z,9.13
2019-02-16T13:03:00.194Z,7.43
2019-02-16T13:05:45.939Z,8.80
2019-02-16T13:08:18.976Z,7.93
2019-02-16T13:11:05.956Z,14.43
2019-02-16T13:13:48.287Z,7.33
2019-02-16T13:16:21.643Z,8.33
2019-02-16T13:18:51.969Z,6.67
2019-02-16T13:21:22.283Z,4.83
2019-02-16T13:24:01.610Z,15.47
2019-02-16T13:26:34.617Z,4.67
2019-02-16T13:29:07.986Z,6.30
2019-02-16T13:31:44.424Z,5.93
2019-02-16T13:34:17.901Z,5.53
2019-02-16T13:37:04.926Z,5.13
2019-02-16T13:39:44.461Z,6.57
2019-02-16T13:42:27.063Z,5.83
2019-02-16T13:44:57.712Z,5.07
2019-02-16T13:47:28.022Z,7.27
2019-02-16T13:49:58.323Z,7.70
2019-02-16T13:52:29.230Z,12.07
2019-02-16T13:54:59.557Z,6.97
2019-02-16T13:57:32.814Z,25.77
2019-02-16T14:00:04.356Z,8.23
2019-02-16T14:02:37.401Z,10.30
2019-02-16T14:05:11.119Z,6.50
2019-02-16T14:07:56.677Z,6.13
2019-02-16T14:10:37.195Z,18.70
2019-02-16T14:13:13.483Z,11.83
2019-02-16T14:15:49.913Z,27.00
2019-02-16T14:18:18.645Z,14.73
2019-02-16T14:20:47.423Z,12.43
2019-02-16T14:23:16.300Z,6.63
2019-02-16T14:25:45.896Z,6.70
2019-02-16T14:28:14.787Z,7.23
2019-02-16T14:30:43.664Z,5.33
2019-02-16T14:33:12.395Z,15.57
2019-02-16T14:35:41.129Z,19.50
2019-02-16T14:38:21.102Z,18.53
2019-02-16T14:40:49.830Z,16.77
2019-02-16T14:43:18.603Z,16.73
2019-02-16T14:45:47.335Z,6.53
2019-02-16T14:48:16.067Z,20.73
2019-02-16T14:50:44.792Z,7.47
2019-02-16T14:53:13.944Z,6.17
2019-02-16T14:55:51.615Z,6.83
2019-02-16T14:58:13.132Z,8.70
2019-02-16T15:00:42.031Z,25.00
2019-02-16T15:03:10.771Z,12.40
2019-02-16T15:05:39.496Z,6.93
2019-02-16T15:08:08.395Z,9.27
2019-02-16T15:10:37.124Z,8.70
2019-02-16T15:13:05.852Z,7.60
2019-02-16T15:15:34.640Z,13.03
2019-02-16T15:18:03.882Z,10.37
2019-02-16T15:20:32.671Z,16.40
2019-02-16T15:23:01.626Z,22.43
2019-02-16T15:25:30.361Z,13.07
2019-02-16T15:27:59.099Z,36.57
2019-02-16T15:30:28.212Z,13.90
2019-02-16T15:32:56.955Z,14.70
2019-02-16T15:35:27.530Z,13.13
2019-02-16T15:37:56.494Z,13.40
2019-02-16T15:40:25.218Z,27.07
2019-02-16T15:42:53.940Z,27.03
2019-02-16T15:45:22.695Z,9.97
2019-02-16T15:47:51.423Z,21.53
2019-02-16T15:50:20.149Z,30.43
2019-02-16T15:52:49.108Z,10.43
2019-02-16T15:55:17.870Z,28.13
2019-02-16T15:57:46.601Z,36.40
2019-02-16T16:00:20.000Z,31.03
2019-02-16T16:02:48.744Z,19.73
2019-02-16T16:05:17.463Z,43.90
2019-02-16T16:07:48.186Z,74.47
2019-02-16T16:10:18.474Z,50.37
2019-02-16T16:12:50.130Z,53.43
2019-02-16T16:15:23.229Z,268.73
2019-02-16T16:17:59.559Z,454.13
2019-02-16T16:20:47.196Z,138.00
2019-02-16T16:23:33.691Z,81.37
2019-02-16T16:26:04.019Z,113.93
2019-02-16T16:28:34.924Z,193.60
2019-02-16T16:31:21.209Z,152.83
2019-02-16T16:34:00.481Z,178.03
2019-02-16T16:36:40.489Z,155.13
2019-02-16T16:39:10.758Z,155.43
2019-02-16T16:41:44.009Z,166.80
2019-02-16T16:44:14.697Z,150.90
2019-02-16T16:46:45.027Z,139.17
2019-02-16T16:49:46.187Z,176.03
2019-02-16T16:52:41.936Z,239.33
2019-02-16T16:55:12.315Z,429.60
2019-02-16T16:57:42.622Z,469.80
2019-02-16T17:00:25.418Z,373.97
2019-02-16T17:03:11.840Z,549.80
2019-02-16T17:05:45.359Z,286.10
2019-02-16T17:08:32.069Z,344.20
2019-02-16T17:11:02.433Z,185.03
2019-02-16T17:13:35.469Z,227.33
2019-02-16T17:16:05.780Z,131.20
2019-02-16T17:18:52.700Z,142.20
2019-02-16T17:21:35.008Z,156.67
2019-02-16T17:24:05.415Z,215.20
2019-02-16T17:26:38.036Z,132.27
2019-02-16T17:29:17.753Z,150.10
2019-02-16T17:32:04.259Z,212.00
2019-02-16T17:34:46.768Z,299.20
2019-02-16T17:37:20.069Z,115.00
2019-02-16T17:39:50.372Z,124.27
2019-02-16T17:42:25.286Z,105.20
2019-02-16T17:45:01.747Z,103.87
2019-02-16T17:47:47.777Z,114.97
2019-02-16T17:50:26.666Z,69.27
2019-02-16T17:53:02.978Z,83.37
2019-02-16T17:55:42.421Z,57.27
2019-02-16T17:58:12.830Z,71.33
2019-02-16T18:00:43.139Z,89.67
2019-02-16T18:03:13.447Z,72.17
2019-02-16T18:05:55.742Z,67.20
2019-02-16T18:08:26.037Z,54.73
2019-02-16T18:11:08.781Z,64.30
2019-02-16T18:13:39.084Z,53.70
2019-02-16T18:16:15.267Z,66.40
2019-02-16T18:18:45.718Z,54.87
2019-02-16T18:21:19.241Z,39.67
2019-02-16T18:23:49.534Z,42.60
2019-02-16T18:26:19.884Z,48.40
2019-02-16T18:28:57.557Z,43.73
2019-02-16T18:31:28.058Z,40.80
2019-02-16T18:34:15.614Z,39.40
2019-02-16T18:36:52.250Z,38.30
2019-02-16T18:39:39.227Z,64.33
2019-02-16T18:42:25.749Z,70.33
2019-02-16T18:45:02.797Z,95.80
2019-02-16T18:47:42.441Z,88.83
2019-02-16T18:50:16.218Z,93.00
2019-02-16T18:52:46.573Z,109.30
2019-02-16T18:55:16.878Z,140.90
2019-02-16T18:57:50.574Z,126.50
2019-02-16T19:00:20.887Z,117.67
2019-02-16T19:02:54.449Z,115.13
2019-02-16T19:05:41.309Z,129.67
2019-02-16T19:08:21.382Z,151.40
2019-02-16T19:11:14.220Z,201.30
2019-02-16T19:13:47.068Z,238.07
2019-02-16T19:16:37.761Z,225.93
2019-02-16T19:19:11.066Z,154.03
2019-02-16T19:21:48.883Z,133.37
2019-02-16T19:24:31.244Z,113.27
2019-02-16T19:27:01.664Z,122.57
2019-02-16T19:29:48.073Z,117.33
2019-02-16T19:32:29.299Z,112.37
2019-02-16T19:35:02.494Z,79.00
2019-02-16T19:37:35.937Z,85.53
2019-02-16T19:40:12.856Z,63.57
2019-02-16T19:42:49.842Z,54.37
2019-02-16T19:45:23.264Z,44.23
2019-02-16T19:47:53.983Z,36.90
2019-02-16T19:50:26.099Z,37.60
2019-02-16T19:52:56.501Z,33.00
2019-02-16T19:55:30.333Z,30.03
2019-02-16T19:58:06.643Z,29.63
2019-02-16T20:00:53.946Z,35.40
2019-02-16T20:03:29.853Z,44.87
2019-02-16T20:06:04.518Z,47.37
2019-02-16T20:08:43.348Z,49.60
2019-02-16T20:11:20.000Z,52.97
2019-02-16T20:13:53.282Z,53.40
2019-02-16T20:16:41.969Z,45.33
2019-02-16T20:19:12.269Z,51.70
2019-02-16T20:21:42.604Z,59.87
2019-02-16T20:24:28.156Z,69.07
2019-02-16T20:27:14.809Z,66.20
2019-02-16T20:29:45.150Z,55.57
2019-02-16T20:32:31.568Z,62.87
2019-02-16T20:35:04.946Z,97.87
2019-02-16T20:37:39.497Z,105.07
2019-02-16T20:40:15.723Z,87.57
2019-02-16T20:42:49.722Z,73.80
2019-02-16T20:45:20.029Z,144.87
2019-02-16T20:47:50.494Z,64.57
2019-02-16T20:50:20.803Z,55.10
2019-02-16T20:53:03.499Z,59.90
2019-02-16T20:55:39.961Z,52.20
2019-02-16T20:58:13.242Z,45.57
2019-02-16T21:00:43.539Z,57.63
2019-02-16T21:03:19.907Z,67.37
2019-02-16T21:06:06.395Z,50.10
2019-02-16T21:08:40.047Z,40.80
2019-02-16T21:11:16.528Z,44.90
2019-02-16T21:13:47.068Z,33.67
2019-02-16T21:16:33.718Z,39.90
2019-02-16T21:19:04.500Z,40.07
2019-02-16T21:21:53.211Z,36.40
2019-02-16T21:24:23.671Z,40.27
2019-02-16T21:26:57.038Z,32.70
2019-02-16T21:29:42.524Z,31.77
2019-02-16T21:32:12.834Z,37.93
2019-02-16T21:34:59.598Z,43.10
2019-02-16T21:37:36.310Z,30.70
2019-02-16T21:40:07.452Z,49.50
2019-02-16T21:42:37.747Z,38.43
2019-02-16T21:45:10.967Z,34.60
2019-02-16T21:47:50.624Z,35.90
2019-02-16T21:50:23.938Z,44.53
2019-02-16T21:53:09.757Z,55.80
2019-02-16T21:55:56.268Z,67.90
2019-02-16T21:58:29.558Z,73.10
2019-02-16T22:01:02.707Z,58.33
2019-02-16T22:03:33.006Z,79.40
2019-02-16T22:06:19.551Z,68.73
2019-02-16T22:08:52.634Z,77.07
2019-02-16T22:11:22.939Z,68.07
2019-02-16T22:13:51.835Z,76.60
2019-02-16T22:16:20.562Z,80.97
2019-02-16T22:18:49.291Z,85.73
2019-02-16T22:21:24.426Z,95.77
2019-02-16T22:23:53.162Z,109.20
2019-02-16T22:26:21.900Z,102.37
2019-02-16T22:28:50.799Z,87.33
2019-02-16T22:31:19.528Z,79.43
2019-02-16T22:33:48.260Z,82.87
2019-02-16T22:36:17.060Z,85.70
2019-02-16T22:38:45.853Z,104.60
2019-02-16T22:41:14.785Z,92.57
2019-02-16T22:43:43.643Z,85.83
2019-02-16T22:46:13.389Z,92.23
2019-02-16T22:48:42.150Z,70.17
2019-02-16T22:51:10.940Z,61.57
2019-02-16T22:53:39.667Z,53.00
2019-02-16T22:56:08.406Z,52.57
2019-02-16T22:58:37.201Z,57.43
2019-02-16T23:01:06.228Z,45.10
2019-02-16T23:03:34.958Z,46.63
2019-02-16T23:06:03.754Z,44.00
2019-02-16T23:08:32.486Z,42.33
2019-02-16T23:11:01.217Z,40.23
2019-02-16T23:13:30.520Z,45.73
2019-02-16T23:15:59.253Z,43.27
2019-02-16T23:18:27.978Z,40.70
2019-02-16T23:20:56.754Z,35.67
2019-02-16T23:23:25.483Z,33.67
2019-02-16T23:25:54.214Z,34.30
2019-02-16T23:28:23.211Z,64.10
2019-02-16T23:30:51.946Z,58.43
2019-02-16T23:33:20.691Z,93.53
2019-02-16T23:35:49.546Z,77.17
2019-02-16T23:38:18.280Z,58.10
2019-02-16T23:40:47.159Z,103.63
2019-02-16T23:43:16.286Z,129.70
2019-02-16T23:45:45.017Z,61.53
2019-02-16T23:48:13.744Z,43.07
2019-02-16T23:50:42.623Z,33.27
2019-02-16T23:53:11.353Z,28.87
2019-02-16T23:55:40.078Z,31.83
2019-02-16T23:58:08.964Z,28.67
